Time;durP1;ratioP1;P1;durP2;ratioP2;P2;SDS_P1;SDS_P2;PMS_P1;PMS_P2;Temp;Humidity;BMP_temperature;BMP_pressure;BME280_temperature;BME280_humidity;BME280_pressure;Samples;Min_cycle;Max_cycle;Signal;HPM_P1;HPM_P2
2023/01/13 00:02:19;;;;;;;30.00;5.38;;;9.20;99.90;;;;;;5055712;28;20040;-67
2023/01/13 00:04:46;;;;;;;28.77;5.03;;;9.20;99.90;;;;;;5072634;28;20097;-67
2023/01/13 00:07:11;;;;;;;28.88;5.65;;;9.20;99.90;;;;;;5072319;28;20123;-67
2023/01/13 00:09:37;;;;;;;27.52;5.28;;;9.10;99.90;;;;;;5072177;28;20111;-67
2023/01/13 00:12:04;;;;;;;34.38;7.25;;;9.10;99.90;;;;;;5072174;28;20044;-67
2023/01/13 00:14:33;;;;;;;29.73;5.68;;;9.10;99.90;;;;;;5072466;28;20067;-67
2023/01/13 00:16:59;;;;;;;29.27;5.38;;;9.00;99.90;;;;;;5072240;28;20033;-67
2023/01/13 00:19:24;;;;;;;32.58;5.50;;;9.00;99.90;;;;;;5073055;28;20040;-67
2023/01/13 00:21:50;;;;;;;29.70;5.97;;;8.90;99.90;;;;;;5072138;28;20382;-67
2023/01/13 00:24:16;;;;;;;31.90;5.57;;;8.90;99.90;;;;;;5072077;28;20129;-67
2023/01/13 00:26:41;;;;;;;33.75;5.90;;;8.90;99.90;;;;;;5073607;28;20053;-67
2023/01/13 00:29:07;;;;;;;31.40;5.55;;;8.80;99.90;;;;;;5071981;28;20041;-67
2023/01/13 00:31:32;;;;;;;42.78;6.30;;;8.80;99.90;;;;;;5072016;28;20040;-67
2023/01/13 00:33:59;;;;;;;35.17;6.88;;;8.80;99.90;;;;;;5071938;28;20612;-67
2023/01/13 00:36:25;;;;;;;44.25;6.57;;;8.80;99.90;;;;;;5071915;28;20040;-67
2023/01/13 00:38:51;;;;;;;38.30;7.15;;;8.80;99.90;;;;;;5071825;28;20036;-67
2023/01/13 00:41:22;;;;;;;38.10;7.68;;;8.80;99.90;;;;;;5071884;28;20033;-68
2023/01/13 00:43:48;;;;;;;36.72;7.47;;;8.70;99.90;;;;;;5072130;28;20536;-67
2023/01/13 00:46:18;;;;;;;33.83;6.45;;;8.60;99.90;;;;;;5071878;28;20075;-67
2023/01/13 00:48:43;;;;;;;46.28;7.95;;;8.60;99.90;;;;;;5071951;28;20044;-67
2023/01/13 00:51:15;;;;;;;39.65;7.30;;;8.60;99.90;;;;;;5071533;28;20485;-67
2023/01/13 00:53:47;;;;;;;36.08;6.78;;;8.60;99.90;;;;;;5071756;28;20044;-67
2023/01/13 00:56:17;;;;;;;41.38;7.70;;;8.60;99.90;;;;;;5071725;28;20072;-67
2023/01/13 00:58:44;;;;;;;39.47;7.68;;;8.50;99.90;;;;;;5073136;28;20044;-67
2023/01/13 01:01:13;;;;;;;40.88;8.20;;;8.50;99.90;;;;;;5071715;28;20040;-67
2023/01/13 01:03:38;;;;;;;44.83;7.78;;;8.50;99.90;;;;;;5071938;28;20561;-67
2023/01/13 01:06:25;;;;;;;33.78;7.00;;;8.50;99.90;;;;;;5071639;28;20124;-67
2023/01/13 01:08:51;;;;;;;38.45;7.50;;;8.50;99.90;;;;;;5071819;28;20054;-67
2023/01/13 01:11:23;;;;;;;39.00;6.50;;;8.40;99.90;;;;;;5071531;28;20040;-67
2023/01/13 01:13:51;;;;;;;41.45;6.78;;;8.40;99.90;;;;;;5071857;28;20119;-67
2023/01/13 01:16:18;;;;;;;43.70;7.15;;;8.40;99.90;;;;;;5071588;28;20049;-67
2023/01/13 01:18:46;;;;;;;36.55;7.03;;;8.40;99.90;;;;;;5071677;28;20123;-67
2023/01/13 01:21:13;;;;;;;41.15;8.27;;;8.50;99.90;;;;;;5071478;28;20045;-67
2023/01/13 01:23:39;;;;;;;32.53;6.05;;;8.40;99.90;;;;;;5071488;28;20413;-67
2023/01/13 01:26:13;;;;;;;41.83;6.60;;;8.40;99.90;;;;;;5071724;28;20048;-67
2023/01/13 01:28:38;;;;;;;29.77;5.45;;;8.40;99.90;;;;;;5072636;28;20375;-67
2023/01/13 01:31:10;;;;;;;38.53;7.45;;;8.40;99.90;;;;;;5071474;28;20052;-67
2023/01/13 01:33:35;;;;;;;32.40;5.93;;;8.30;99.90;;;;;;5072653;28;20037;-67
2023/01/13 01:36:02;;;;;;;29.30;6.05;;;8.30;99.90;;;;;;5071632;28;20036;-67
2023/01/13 01:38:28;;;;;;;38.25;6.32;;;8.30;99.90;;;;;;5071294;28;20607;-67
2023/01/13 01:40:54;;;;;;;34.47;5.78;;;8.40;99.90;;;;;;5071550;28;20052;-67
2023/01/13 01:46:06;;;;;;;27.20;5.38;;;8.40;99.90;;;;;;5071312;28;20048;-67
2023/01/13 01:48:39;;;;;;;30.05;5.50;;;8.30;99.90;;;;;;5072520;28;20048;-67
2023/01/13 01:51:10;;;;;;;28.23;5.18;;;8.30;99.90;;;;;;5071161;28;20052;-67
2023/01/13 01:53:36;;;;;;;35.72;6.82;;;8.30;99.90;;;;;;5071286;28;20485;-67
2023/01/13 01:56:02;;;;;;;35.47;5.88;;;8.30;99.90;;;;;;5071121;28;20041;-67
2023/01/13 01:58:34;;;;;;;32.60;6.25;;;8.20;99.90;;;;;;5071329;28;20041;-67
2023/01/13 02:00:59;;;;;;;27.63;5.32;;;8.20;99.90;;;;;;5071437;28;20041;-67
2023/01/13 02:03:25;;;;;;;36.88;5.97;;;8.20;99.90;;;;;;5073179;28;20409;-67
2023/01/13 02:05:51;;;;;;;26.85;5.63;;;8.20;99.90;;;;;;5074638;28;20048;-67
2023/01/13 02:08:18;;;;;;;34.25;5.93;;;8.20;99.90;;;;;;5074777;28;20052;-67
2023/01/13 02:10:50;;;;;;;36.92;6.97;;;8.20;99.90;;;;;;5074504;28;20048;-67
2023/01/13 02:13:16;;;;;;;33.53;6.15;;;8.20;99.90;;;;;;5075897;28;20102;-67
2023/01/13 02:16:02;;;;;;;36.88;6.40;;;8.20;99.90;;;;;;5074515;28;20032;-67
2023/01/13 02:18:51;;;;;;;32.42;6.72;;;8.20;99.90;;;;;;5074422;28;20124;-67
2023/01/13 02:21:34;;;;;;;41.33;7.35;;;8.20;99.90;;;;;;5074702;28;20052;-67
2023/01/13 02:27:29;;;;;;;33.85;7.03;;;8.20;99.90;;;;;;5074548;28;20063;-67
2023/01/13 02:33:18;;;;;;;30.80;6.25;;;8.30;99.90;;;;;;5060543;28;20048;-67
2023/01/13 02:35:55;;;;;;;33.13;6.72;;;8.20;99.90;;;;;;5074390;28;20097;-67
2023/01/13 02:38:28;;;;;;;37.20;6.72;;;8.30;99.90;;;;;;5074055;28;20517;-67
2023/01/13 02:44:05;;;;;;;33.33;6.82;;;8.20;99.90;;;;;;5074127;28;20485;-67
2023/01/13 02:44:05;;;;;;;36.75;6.75;;;8.20;99.90;;;;;;5075068;28;20044;-67
2023/01/13 02:46:58;;;;;;;34.08;7.20;;;8.10;99.90;;;;;;5074347;28;20487;-67
2023/01/13 02:49:42;;;;;;;36.65;7.22;;;8.10;99.90;;;;;;5073611;28;20045;-67
2023/01/13 02:52:21;;;;;;;36.75;6.85;;;8.00;99.90;;;;;;5073810;28;20040;-67
2023/01/13 02:54:53;;;;;;;30.08;5.18;;;8.00;99.90;;;;;;5074521;28;20091;-67
2023/01/13 02:57:20;;;;;;;32.85;5.82;;;8.00;99.90;;;;;;5073673;28;20029;-69
2023/01/13 02:59:47;;;;;;;31.88;5.65;;;7.90;99.90;;;;;;5073659;28;20410;-67
2023/01/13 03:02:17;;;;;;;38.58;7.53;;;7.90;99.90;;;;;;5073662;28;20036;-67
2023/01/13 03:04:50;;;;;;;29.17;5.32;;;8.00;99.90;;;;;;5073625;28;20036;-67
2023/01/13 03:07:40;;;;;;;40.15;6.13;;;8.00;99.90;;;;;;5073555;28;20048;-67
2023/01/13 03:10:15;;;;;;;33.33;5.90;;;8.00;99.90;;;;;;5073428;28;20036;-67
2023/01/13 03:13:04;;;;;;;32.17;6.25;;;7.90;99.90;;;;;;5073800;28;20041;-67
2023/01/13 03:15:40;;;;;;;42.22;6.75;;;7.90;99.90;;;;;;5073583;28;20056;-67
2023/01/13 03:18:18;;;;;;;36.80;6.47;;;7.90;99.90;;;;;;5073285;28;20579;-67
2023/01/13 03:21:02;;;;;;;40.85;6.57;;;7.90;99.90;;;;;;5073306;28;20049;-67
2023/01/13 03:24:05;;;;;;;36.60;6.07;;;7.90;99.90;;;;;;5073171;28;20066;-67
2023/01/13 03:26:49;;;;;;;33.40;7.13;;;8.00;99.90;;;;;;5073460;28;20079;-67
2023/01/13 03:29:31;;;;;;;32.95;6.57;;;7.90;99.90;;;;;;5072956;28;20044;-67
2023/01/13 03:32:11;;;;;;;37.38;6.25;;;8.00;99.90;;;;;;5073007;28;20036;-67
2023/01/13 03:34:49;;;;;;;33.97;6.28;;;8.00;99.90;;;;;;5073228;28;20045;-67
2023/01/13 03:37:18;;;;;;;40.97;7.07;;;7.90;99.90;;;;;;5073201;28;20044;-67
2023/01/13 03:39:48;;;;;;;38.80;6.63;;;7.90;99.90;;;;;;5072782;28;20048;-67
2023/01/13 03:42:21;;;;;;;35.40;5.60;;;7.90;99.90;;;;;;5072827;28;20500;-67
2023/01/13 03:44:54;;;;;;;36.13;7.15;;;7.90;99.90;;;;;;5072818;28;20083;-67
2023/01/13 03:47:20;;;;;;;34.92;6.28;;;7.90;99.90;;;;;;5072961;28;20044;-67
2023/01/13 03:50:08;;;;;;;42.80;7.90;;;7.90;99.90;;;;;;5072800;28;20502;-67
2023/01/13 03:52:50;;;;;;;43.13;7.38;;;8.00;99.90;;;;;;5072522;28;20090;-67
2023/01/13 03:55:21;;;;;;;41.33;7.15;;;8.00;99.90;;;;;;5072592;28;20411;-67
2023/01/13 03:58:09;;;;;;;44.50;6.38;;;8.00;99.90;;;;;;5072753;28;20040;-67
2023/01/13 04:00:46;;;;;;;38.20;6.00;;;8.10;99.90;;;;;;5055865;28;20124;-67
2023/01/13 04:03:37;;;;;;;40.40;7.00;;;8.10;99.90;;;;;;5072437;28;20048;-67
2023/01/13 04:06:15;;;;;;;42.10;7.57;;;8.10;99.90;;;;;;5072651;28;20119;-67
2023/01/13 04:08:50;;;;;;;38.30;6.68;;;8.10;99.90;;;;;;5072602;28;20178;-67
2023/01/13 04:11:42;;;;;;;49.45;7.82;;;8.10;99.90;;;;;;5072217;28;20049;-67
2023/01/13 04:14:10;;;;;;;41.85;8.60;;;8.10;99.90;;;;;;5072303;28;20052;-67
2023/01/13 04:16:36;;;;;;;43.13;6.00;;;8.10;99.90;;;;;;5055540;28;20430;-67
2023/01/13 04:19:02;;;;;;;40.83;6.25;;;8.10;99.90;;;;;;5072131;28;20052;-67
2023/01/13 04:21:29;;;;;;;48.92;7.95;;;8.10;99.90;;;;;;5072441;28;20406;-67
2023/01/13 04:23:55;;;;;;;38.22;6.80;;;8.10;99.90;;;;;;5073345;28;20037;-67
2023/01/13 04:26:22;;;;;;;41.30;6.15;;;8.10;99.90;;;;;;5071917;28;20046;-67
2023/01/13 04:28:47;;;;;;;36.92;7.35;;;8.10;99.90;;;;;;5072006;28;20051;-67
2023/01/13 04:31:13;;;;;;;40.00;7.47;;;8.10;99.90;;;;;;5072108;28;20036;-67
2023/01/13 04:33:39;;;;;;;39.40;7.45;;;8.10;99.90;;;;;;5072013;28;20032;-67
2023/01/13 04:36:05;;;;;;;37.88;6.82;;;8.10;99.90;;;;;;5072006;28;20093;-67
2023/01/13 04:38:30;;;;;;;43.22;7.13;;;8.10;99.90;;;;;;5072166;28;20044;-67
2023/01/13 04:40:56;;;;;;;43.58;8.02;;;8.10;99.90;;;;;;5071911;28;20524;-67
2023/01/13 04:43:21;;;;;;;42.60;7.68;;;8.00;99.90;;;;;;5072162;28;20123;-67
2023/01/13 04:45:47;;;;;;;41.75;8.23;;;8.10;99.90;;;;;;5072144;28;20041;-67
2023/01/13 04:48:13;;;;;;;45.40;7.05;;;8.10;99.90;;;;;;5071782;28;20566;-67
2023/01/13 04:50:38;;;;;;;44.20;7.38;;;8.00;99.90;;;;;;5071658;28;20523;-67
2023/01/13 04:53:04;;;;;;;43.05;7.28;;;8.00;99.90;;;;;;5071827;28;20178;-67
2023/01/13 04:55:30;;;;;;;37.80;6.75;;;8.00;99.90;;;;;;5073044;28;20048;-67
2023/01/13 04:58:04;;;;;;;34.78;6.75;;;8.00;99.90;;;;;;5071674;28;20115;-67
2023/01/13 05:00:30;;;;;;;41.88;6.90;;;8.00;99.90;;;;;;5071784;28;20045;-67
2023/01/13 05:02:57;;;;;;;43.58;8.00;;;8.00;99.90;;;;;;5071684;28;20044;-67
2023/01/13 05:05:22;;;;;;;34.28;6.22;;;8.00;99.90;;;;;;5071702;28;20036;-67
2023/01/13 05:07:48;;;;;;;40.90;7.20;;;8.10;99.90;;;;;;5071566;28;20047;-67
2023/01/13 05:10:13;;;;;;;39.88;8.18;;;8.00;99.90;;;;;;5071564;28;20086;-67
2023/01/13 05:18:08;;;;;;;38.65;6.38;;;8.00;99.90;;;;;;5071785;28;20040;-67
2023/01/13 05:20:34;;;;;;;40.67;8.40;;;8.00;99.90;;;;;;5072771;28;20386;-67
2023/01/13 05:25:46;;;;;;;30.85;6.10;;;8.00;99.90;;;;;;5071546;28;20056;-67
2023/01/13 05:28:12;;;;;;;33.97;6.38;;;8.00;99.90;;;;;;5071379;28;20049;-67
2023/01/13 05:30:43;;;;;;;35.38;6.20;;;8.00;99.90;;;;;;5071540;28;20047;-67
2023/01/13 05:33:10;;;;;;;36.35;5.95;;;8.00;99.90;;;;;;5071430;28;20044;-67
2023/01/13 05:35:40;;;;;;;34.65;5.45;;;7.90;99.90;;;;;;5071399;28;20063;-67
2023/01/13 05:38:06;;;;;;;33.38;4.53;;;7.90;99.90;;;;;;5072981;28;20485;-67
2023/01/13 05:43:19;;;;;;;32.72;5.38;;;7.80;99.90;;;;;;5075373;28;20044;-67
2023/01/13 05:45:49;;;;;;;29.45;5.75;;;7.80;99.90;;;;;;5074998;28;20456;-67
2023/01/13 05:48:16;;;;;;;30.05;5.40;;;7.80;99.90;;;;;;5074901;28;20048;-67
2023/01/13 05:50:42;;;;;;;39.50;6.18;;;7.80;99.90;;;;;;5074821;28;20044;-67
2023/01/13 05:53:07;;;;;;;33.85;5.75;;;7.70;99.90;;;;;;5074924;28;20041;-67
2023/01/13 05:55:33;;;;;;;25.00;5.10;;;7.70;99.90;;;;;;5075130;28;20044;-67
2023/01/13 05:57:59;;;;;;;34.00;5.97;;;7.80;99.90;;;;;;5074785;28;20050;-67
2023/01/13 06:00:25;;;;;;;26.85;6.88;;;7.70;99.90;;;;;;5074818;28;20044;-67
2023/01/13 06:02:51;;;;;;;27.88;5.07;;;7.70;99.90;;;;;;5074762;28;20068;-67
2023/01/13 06:05:16;;;;;;;20.80;4.45;;;7.70;99.90;;;;;;5074958;28;20089;-67
2023/01/13 06:07:42;;;;;;;29.13;5.28;;;7.80;99.90;;;;;;5074582;28;20052;-67
2023/01/13 06:10:08;;;;;;;22.92;4.07;;;7.80;99.90;;;;;;5074574;28;20044;-67
2023/01/13 06:12:34;;;;;;;29.17;5.20;;;7.80;99.90;;;;;;5074565;28;20120;-67
2023/01/13 06:14:59;;;;;;;28.20;4.57;;;7.90;99.90;;;;;;5074799;28;20185;-67
2023/01/13 06:17:25;;;;;;;31.48;5.45;;;7.90;99.90;;;;;;5074389;28;20044;-67
2023/01/13 06:19:50;;;;;;;20.90;4.30;;;7.90;99.90;;;;;;5074484;28;20041;-66
2023/01/13 06:22:31;;;;;;;26.85;4.40;;;7.90;99.90;;;;;;5074426;28;20047;-66
2023/01/13 06:24:58;;;;;;;28.15;3.95;;;7.90;99.90;;;;;;5074437;28;20195;-67
2023/01/13 06:27:24;;;;;;;25.80;5.32;;;7.90;99.90;;;;;;5074281;28;20048;-67
2023/01/13 06:29:49;;;;;;;16.70;3.45;;;7.90;99.90;;;;;;5074296;28;20048;-66
2023/01/13 06:32:23;;;;;;;25.17;4.45;;;7.90;99.90;;;;;;5074204;28;20041;-66
2023/01/13 06:34:59;;;;;;;21.60;3.97;;;7.90;99.90;;;;;;5074227;28;20123;-66
2023/01/13 06:37:26;;;;;;;17.45;3.53;;;8.00;99.90;;;;;;5074111;28;20040;-67
2023/01/13 06:39:57;;;;;;;20.90;3.28;;;8.00;99.90;;;;;;5074072;28;20106;-66
2023/01/13 06:45:09;;;;;;;19.65;3.65;;;8.00;99.90;;;;;;5074024;28;20044;-66
2023/01/13 06:47:35;;;;;;;25.00;4.57;;;7.90;99.90;;;;;;5074160;28;20058;-67
2023/01/13 06:50:01;;;;;;;24.58;3.75;;;7.90;99.90;;;;;;5073302;28;20051;-67
2023/01/13 06:52:29;;;;;;;20.15;3.50;;;7.90;99.90;;;;;;5073881;28;20041;-67
2023/01/13 06:54:55;;;;;;;22.95;4.03;;;7.80;99.90;;;;;;5073827;28;20040;-67
2023/01/13 06:57:21;;;;;;;16.63;3.45;;;7.80;99.90;;;;;;5073692;28;20119;-68
2023/01/13 06:59:47;;;;;;;19.80;4.05;;;7.80;99.90;;;;;;5073980;28;20123;-66
2023/01/13 07:02:12;;;;;;;19.88;3.92;;;7.80;99.90;;;;;;5073687;28;20475;-66
2023/01/13 07:04:38;;;;;;;19.17;3.45;;;7.80;99.90;;;;;;5073645;28;20042;-67
2023/01/13 07:07:03;;;;;;;25.50;4.53;;;7.90;99.90;;;;;;5073572;28;20045;-66
2023/01/13 07:09:29;;;;;;;15.88;3.22;;;7.90;99.90;;;;;;5073747;28;20124;-67
2023/01/13 07:11:54;;;;;;;23.88;3.70;;;7.90;99.90;;;;;;5073374;28;20489;-66
2023/01/13 07:17:04;;;;;;;13.35;3.15;;;7.90;99.90;;;;;;5073484;28;20040;-66
2023/01/13 07:19:30;;;;;;;23.05;3.65;;;7.90;99.90;;;;;;5073264;28;20036;-67
2023/01/13 07:21:55;;;;;;;24.05;3.58;;;7.90;99.90;;;;;;5073572;28;20052;-66
2023/01/13 07:24:21;;;;;;;22.63;3.88;;;7.90;99.90;;;;;;5073481;28;20594;-67
2023/01/13 07:26:47;;;;;;;21.00;3.30;;;7.90;99.90;;;;;;5074399;28;20035;-66
2023/01/13 07:29:13;;;;;;;28.55;3.50;;;7.80;99.90;;;;;;5073025;28;20467;-66
2023/01/13 07:31:38;;;;;;;26.52;4.85;;;7.80;99.90;;;;;;5074772;28;20043;-66
2023/01/13 07:34:05;;;;;;;19.90;3.38;;;7.70;99.90;;;;;;5073009;28;20408;-67
2023/01/13 07:36:31;;;;;;;24.55;4.25;;;7.70;99.90;;;;;;5073188;28;20040;-66
2023/01/13 07:38:56;;;;;;;28.30;4.32;;;7.60;99.90;;;;;;5073103;28;20102;-67
2023/01/13 07:44:09;;;;;;;21.60;3.45;;;7.60;99.90;;;;;;5072855;28;20049;-66
2023/01/13 07:46:36;;;;;;;22.83;3.80;;;7.50;99.90;;;;;;5072762;28;20104;-66
2023/01/13 07:49:02;;;;;;;23.60;4.60;;;7.50;99.90;;;;;;5072837;28;20052;-66
2023/01/13 07:51:28;;;;;;;20.02;3.55;;;7.40;99.90;;;;;;5073565;28;20048;-66
2023/01/13 07:53:53;;;;;;;22.50;3.60;;;7.40;99.90;;;;;;5074442;28;20501;-67
2023/01/13 07:56:19;;;;;;;28.73;4.40;;;7.40;99.90;;;;;;5072600;28;20086;-67
2023/01/13 07:58:49;;;;;;;28.50;4.20;;;7.40;99.90;;;;;;5072728;28;20033;-67
2023/01/13 08:01:16;;;;;;;26.17;4.30;;;7.40;99.90;;;;;;5071785;28;20123;-66
2023/01/13 08:03:42;;;;;;;24.80;3.95;;;7.40;99.90;;;;;;5072718;28;20079;-67
2023/01/13 08:06:09;;;;;;;23.50;4.00;;;7.40;99.90;;;;;;5072405;28;20048;-67
2023/01/13 08:08:35;;;;;;;23.88;4.30;;;7.40;99.90;;;;;;5072295;28;20072;-67
2023/01/13 08:11:02;;;;;;;26.98;4.15;;;7.40;99.90;;;;;;5072411;28;20133;-67
2023/01/13 08:13:27;;;;;;;21.10;4.25;;;7.40;99.90;;;;;;5072457;28;20086;-67
2023/01/13 08:16:08;;;;;;;20.23;4.15;;;7.40;99.90;;;;;;5072363;28;20041;-67
2023/01/13 08:18:35;;;;;;;27.42;4.70;;;7.30;99.90;;;;;;5072366;28;20409;-67
2023/01/13 08:21:04;;;;;;;22.27;4.22;;;7.30;99.90;;;;;;5072199;28;20051;-66
2023/01/13 08:23:29;;;;;;;29.92;4.90;;;7.40;99.90;;;;;;5072394;28;20045;-66
2023/01/13 08:26:03;;;;;;;28.63;4.28;;;7.30;99.90;;;;;;5072130;28;20051;-67
2023/01/13 08:28:29;;;;;;;26.27;4.35;;;7.30;99.90;;;;;;5072042;28;20040;-67
2023/01/13 08:30:58;;;;;;;27.30;4.75;;;7.30;99.90;;;;;;5072009;28;20044;-67
2023/01/13 08:33:24;;;;;;;23.98;4.53;;;7.30;99.90;;;;;;5072023;28;20082;-66
2023/01/13 08:35:52;;;;;;;23.33;4.13;;;7.30;99.90;;;;;;5072008;28;20040;-67
2023/01/13 08:38:17;;;;;;;30.63;5.53;;;7.30;99.90;;;;;;5071886;28;20493;-67
2023/01/13 08:40:43;;;;;;;30.70;5.55;;;7.30;99.90;;;;;;5071933;28;20045;-67
2023/01/13 08:43:08;;;;;;;28.50;4.75;;;7.40;99.90;;;;;;5071920;28;20041;-68
2023/01/13 08:45:35;;;;;;;24.45;4.45;;;7.40;99.90;;;;;;5072140;28;20174;-67
2023/01/13 08:48:01;;;;;;;30.35;5.43;;;7.40;99.90;;;;;;5072093;28;20119;-67
2023/01/13 08:50:26;;;;;;;24.30;4.43;;;7.40;99.90;;;;;;5071831;28;20583;-67
2023/01/13 08:52:52;;;;;;;28.52;5.25;;;7.40;99.90;;;;;;5071814;28;20133;-67
2023/01/13 08:55:18;;;;;;;25.98;4.90;;;7.40;99.90;;;;;;5072037;28;20037;-67
2023/01/13 08:57:44;;;;;;;30.70;4.18;;;7.40;99.90;;;;;;5071723;28;20481;-67
2023/01/13 09:00:10;;;;;;;30.25;4.78;;;7.40;99.90;;;;;;5071771;28;20036;-67
2023/01/13 09:02:37;;;;;;;29.42;5.47;;;7.40;99.90;;;;;;5071955;28;20037;-67
2023/01/13 09:05:06;;;;;;;25.52;4.53;;;7.50;99.90;;;;;;5071712;28;20051;-67
2023/01/13 09:07:33;;;;;;;22.85;4.75;;;7.50;99.90;;;;;;5071847;28;20063;-68
2023/01/13 09:09:58;;;;;;;26.00;5.28;;;7.40;99.90;;;;;;5071920;28;20063;-67
2023/01/13 09:15:09;;;;;;;31.90;5.07;;;7.50;99.90;;;;;;5075948;28;20063;-68
2023/01/13 09:17:34;;;;;;;22.00;4.15;;;7.60;99.90;;;;;;5075828;28;20049;-68
2023/01/13 09:20:00;;;;;;;25.63;4.38;;;7.60;99.90;;;;;;5075665;28;20407;-67
2023/01/13 09:22:26;;;;;;;31.02;5.60;;;7.60;99.90;;;;;;5075562;28;20041;-67
2023/01/13 09:24:52;;;;;;;28.77;6.00;;;7.60;99.90;;;;;;5075516;28;20057;-68
2023/01/13 09:27:18;;;;;;;23.25;4.50;;;7.60;99.90;;;;;;5075456;28;20075;-68
2023/01/13 09:29:44;;;;;;;26.23;4.90;;;7.60;99.90;;;;;;5075591;28;20091;-68
2023/01/13 09:32:14;;;;;;;29.65;5.10;;;7.60;99.90;;;;;;5075336;28;20391;-68
2023/01/13 09:34:58;;;;;;;29.15;5.28;;;7.60;99.90;;;;;;5075299;28;20082;-68
2023/01/13 09:37:27;;;;;;;34.78;5.47;;;7.50;99.90;;;;;;5076458;28;20049;-68
2023/01/13 09:39:53;;;;;;;32.90;5.68;;;7.50;99.90;;;;;;5075503;28;20231;-68
2023/01/13 09:46:42;;;;;;;30.60;4.65;;;7.50;99.90;;;;;;5075359;28;20176;-68
2023/01/13 09:49:02;;;;;;;34.67;5.32;;;7.50;99.90;;;;;;5074730;28;20048;-68
2023/01/13 09:51:37;;;;;;;30.08;5.15;;;7.50;99.90;;;;;;5074908;28;20041;-68
2023/01/13 09:54:16;;;;;;;30.77;4.88;;;7.50;99.90;;;;;;5074965;28;20086;-68
2023/01/13 09:56:41;;;;;;;32.45;5.50;;;7.50;99.90;;;;;;5075187;28;20040;-68
2023/01/13 09:59:11;;;;;;;29.92;4.88;;;7.50;99.90;;;;;;5058122;28;20044;-68
2023/01/13 10:02:02;;;;;;;33.42;5.18;;;7.50;99.90;;;;;;5074821;28;20129;-68
2023/01/13 10:04:28;;;;;;;35.97;5.55;;;7.50;99.90;;;;;;5075084;28;20045;-68
2023/01/13 10:07:00;;;;;;;33.85;5.20;;;7.50;99.90;;;;;;5074777;28;20139;-68
2023/01/13 10:09:44;;;;;;;29.13;5.18;;;7.50;99.90;;;;;;5074605;28;20416;-68
2023/01/13 10:15:02;;;;;;;32.65;5.38;;;7.60;99.90;;;;;;5074592;28;20048;-68
2023/01/13 10:17:34;;;;;;;28.60;4.35;;;7.60;99.90;;;;;;5074494;28;20037;-68
2023/01/13 10:20:21;;;;;;;30.17;5.10;;;7.60;99.90;;;;;;5074534;28;20041;-68
2023/01/13 10:23:24;;;;;;;29.35;5.13;;;7.60;99.90;;;;;;5074243;28;20050;-69
2023/01/13 10:26:08;;;;;;;32.37;5.83;;;7.60;99.90;;;;;;5074693;28;20124;-68
2023/01/13 10:28:33;;;;;;;31.33;4.53;;;7.60;99.90;;;;;;5074356;28;20044;-68
2023/01/13 10:30:59;;;;;;;36.45;5.68;;;7.50;99.90;;;;;;5074395;28;20127;-68
2023/01/13 10:33:29;;;;;;;32.50;5.45;;;7.50;99.90;;;;;;5074253;28;20067;-68
2023/01/13 10:36:13;;;;;;;36.20;5.95;;;7.60;99.90;;;;;;5074175;28;20071;-68
2023/01/13 10:38:42;;;;;;;32.80;6.03;;;7.60;99.90;;;;;;5074122;28;20044;-68
2023/01/13 10:41:13;;;;;;;33.42;5.30;;;7.60;99.90;;;;;;5074095;28;20052;-68
2023/01/13 10:43:56;;;;;;;34.30;5.68;;;7.60;99.90;;;;;;5074074;28;20222;-68
2023/01/13 10:46:21;;;;;;;28.50;4.78;;;7.60;99.90;;;;;;5075513;28;20509;-68
2023/01/13 10:48:54;;;;;;;32.22;5.03;;;7.60;99.90;;;;;;5073787;28;20048;-68
2023/01/13 10:51:29;;;;;;;30.25;4.82;;;7.60;99.90;;;;;;5073941;28;20055;-68
2023/01/13 10:54:10;;;;;;;33.00;4.72;;;7.60;99.90;;;;;;5073918;28;20040;-68
2023/01/13 10:56:36;;;;;;;29.05;4.05;;;7.60;99.90;;;;;;5073849;28;20049;-68
2023/01/13 10:59:25;;;;;;;26.67;4.20;;;7.60;99.90;;;;;;5074305;28;20067;-68
2023/01/13 11:01:59;;;;;;;30.13;4.50;;;7.70;99.90;;;;;;5073915;28;20044;-68
2023/01/13 11:04:31;;;;;;;28.50;4.95;;;7.70;99.90;;;;;;5073645;28;20124;-68
2023/01/13 11:06:58;;;;;;;25.55;4.35;;;7.70;99.90;;;;;;5073899;28;20048;-68
2023/01/13 11:09:25;;;;;;;31.95;5.03;;;7.70;99.90;;;;;;5073484;28;20090;-68
2023/01/13 11:11:54;;;;;;;27.88;4.82;;;7.80;99.90;;;;;;5073517;28;20044;-68
2023/01/13 11:14:40;;;;;;;21.55;3.90;;;7.80;99.90;;;;;;5073695;28;20447;-68
2023/01/13 11:17:09;;;;;;;25.42;4.50;;;7.90;99.90;;;;;;5073648;28;20119;-68
2023/01/13 11:19:39;;;;;;;25.10;4.53;;;7.90;99.90;;;;;;5073245;28;20083;-68
2023/01/13 11:22:20;;;;;;;23.23;4.63;;;7.90;99.90;;;;;;5073873;28;20072;-68
2023/01/13 11:24:57;;;;;;;23.70;5.10;;;8.00;99.90;;;;;;5073321;28;20044;-68
2023/01/13 11:27:33;;;;;;;28.25;4.95;;;8.00;99.90;;;;;;5056739;28;20051;-69
2023/01/13 11:30:37;;;;;;;26.10;4.03;;;8.00;99.90;;;;;;5073467;28;20048;-68
2023/01/13 11:33:23;;;;;;;24.38;4.00;;;8.10;99.90;;;;;;5073136;28;20049;-68
2023/01/13 11:36:01;;;;;;;21.55;4.47;;;8.10;99.90;;;;;;5055903;28;20048;-68
2023/01/13 11:38:46;;;;;;;25.58;4.20;;;8.10;99.90;;;;;;5073149;28;20037;-68
2023/01/13 11:41:27;;;;;;;18.23;3.38;;;8.10;99.90;;;;;;5072926;28;20098;-68
2023/01/13 11:44:14;;;;;;;22.58;4.97;;;8.10;99.90;;;;;;5072891;28;20050;-68
2023/01/13 11:46:40;;;;;;;29.83;4.53;;;8.10;99.90;;;;;;5072849;28;20044;-68
2023/01/13 11:49:13;;;;;;;25.30;4.30;;;8.20;99.90;;;;;;5072537;28;20043;-68
2023/01/13 11:52:12;;;;;;;27.15;4.82;;;8.20;99.90;;;;;;5072734;28;20090;-68
2023/01/13 11:54:56;;;;;;;25.67;4.70;;;8.20;99.90;;;;;;5072716;28;20506;-68
2023/01/13 11:57:40;;;;;;;25.25;4.50;;;8.20;99.90;;;;;;5072622;28;20040;-69
2023/01/13 12:00:32;;;;;;;18.45;3.60;;;8.20;99.90;;;;;;5072602;28;20044;-68
2023/01/13 12:03:13;;;;;;;21.88;3.97;;;8.20;99.90;;;;;;5072586;28;20041;-68
2023/01/13 12:05:58;;;;;;;19.75;4.07;;;8.20;99.90;;;;;;5072565;28;20047;-68
2023/01/13 12:09:01;;;;;;;25.95;3.88;;;8.30;99.90;;;;;;5072369;28;20557;-68
2023/01/13 12:12:18;;;;;;;19.70;3.78;;;8.30;99.90;;;;;;5072186;28;20405;-68
2023/01/13 12:14:41;;;;;;;17.85;3.70;;;8.30;99.90;;;;;;5072481;28;20074;-68
2023/01/13 12:17:20;;;;;;;28.70;4.65;;;8.40;99.90;;;;;;5072282;28;20040;-68
2023/01/13 12:19:49;;;;;;;23.63;4.40;;;8.40;99.90;;;;;;5073467;28;20045;-68
2023/01/13 12:22:25;;;;;;;21.58;4.28;;;8.40;99.90;;;;;;5072445;28;20556;-68
2023/01/13 12:25:13;;;;;;;26.02;4.30;;;8.40;99.90;;;;;;5072184;28;20051;-68
2023/01/13 12:27:48;;;;;;;19.73;3.92;;;8.40;99.90;;;;;;5072106;28;20048;-68
2023/01/13 12:30:22;;;;;;;22.48;4.03;;;8.50;99.90;;;;;;5072065;28;20051;-68
2023/01/13 12:32:51;;;;;;;20.33;3.78;;;8.50;99.90;;;;;;5072147;28;20036;-68
2023/01/13 12:35:31;;;;;;;17.60;3.40;;;8.50;99.90;;;;;;5072017;28;20044;-68
2023/01/13 12:37:56;;;;;;;24.70;4.03;;;8.60;99.90;;;;;;5071976;28;20111;-68
2023/01/13 12:40:45;;;;;;;19.23;3.30;;;8.60;99.90;;;;;;5072000;28;20121;-67
2023/01/13 12:46:21;;;;;;;17.48;3.28;;;8.60;99.90;;;;;;5072000;28;20048;-68
2023/01/13 12:48:53;;;;;;;16.83;2.63;;;8.50;99.90;;;;;;5071709;28;20044;-68
2023/01/13 12:51:36;;;;;;;18.58;3.65;;;8.50;99.90;;;;;;5071807;28;20044;-68
2023/01/13 12:54:33;;;;;;;20.50;3.10;;;8.50;99.90;;;;;;5072217;28;20076;-68
2023/01/13 12:56:59;;;;;;;14.63;2.67;;;8.50;99.90;;;;;;5071798;28;20036;-67
2023/01/13 12:59:25;;;;;;;18.75;3.03;;;8.50;99.90;;;;;;5071981;28;20064;-67
2023/01/13 13:02:10;;;;;;;16.42;2.70;;;8.50;99.90;;;;;;5072031;28;20048;-67
2023/01/13 13:05:14;;;;;;;21.65;3.60;;;8.60;99.90;;;;;;5071674;28;20079;-67
2023/01/13 13:07:45;;;;;;;;;;;8.60;99.90;;;;;;5051456;28;20084;-68
2023/01/13 13:10:23;;;;;;;20.75;3.50;;;8.50;99.90;;;;;;5054943;28;19916;-68
2023/01/13 13:13:17;;;;;;;17.63;2.72;;;8.60;99.90;;;;;;5071542;28;20125;-68
2023/01/13 13:15:48;;;;;;;18.15;2.95;;;8.60;99.90;;;;;;5054902;28;20098;-67
2023/01/13 13:18:19;;;;;;;15.27;2.97;;;8.60;99.90;;;;;;5071391;28;20501;-67
2023/01/13 13:21:07;;;;;;;16.13;3.03;;;8.70;99.90;;;;;;5071800;28;20044;-67
2023/01/13 13:23:42;;;;;;;16.13;2.63;;;8.70;99.90;;;;;;5071867;28;20107;-68
2023/01/13 13:26:29;;;;;;;19.73;3.25;;;8.60;99.90;;;;;;5071797;28;20527;-70
2023/01/13 13:29:25;;;;;;;17.02;3.08;;;8.60;99.90;;;;;;5071654;28;20094;-68
2023/01/13 13:32:16;;;;;;;13.85;2.58;;;8.60;99.90;;;;;;5072222;28;20467;-69
2023/01/13 13:34:59;;;;;;;15.45;3.08;;;8.60;99.90;;;;;;5071411;28;20040;-71
2023/01/13 13:46:45;;;;;;;18.63;2.55;;;8.70;99.90;;;;;;5071247;28;20589;-67
2023/01/13 13:49:33;;;;;;;15.07;2.78;;;8.80;99.90;;;;;;5071395;28;20044;-71
2023/01/13 13:52:03;;;;;;;18.95;3.10;;;8.80;99.90;;;;;;5071885;28;20098;-71
2023/01/13 13:54:30;;;;;;;13.48;2.70;;;8.80;99.90;;;;;;5071279;28;20040;-71
2023/01/13 13:56:57;;;;;;;15.77;2.22;;;8.80;99.90;;;;;;5071390;28;20566;-71
2023/01/13 13:59:26;;;;;;;14.82;2.30;;;8.80;99.90;;;;;;5056506;28;20060;-71
2023/01/13 14:02:00;;;;;;;12.63;2.22;;;8.80;99.90;;;;;;5074853;28;20050;-71
2023/01/13 14:04:28;;;;;;;16.00;2.58;;;8.80;99.90;;;;;;5074860;28;20068;-72